Aviation Digital Data Service (ADDS)

Output produced by METARs form (2203 UTC 16 February 2019)
found at http://www.aviationweather.gov/metar/data/
 
METAR text: VCBI 162110Z 06003KT 9999 FEW030 24/23 Q1012 NOSIG
Conditions at: VCBI (COLOMBO/KATUNAYA, LK) observed 2110 UTC 16 February 2019
Temperature: 24.0°C (75°F)
Dewpoint: 23.0°C (73°F) [RH = 94%]
Pressure (altimeter): 29.88 inches Hg (1012.0 mb)
Winds: from the ENE (60 degrees) at 3 MPH (3 knots; 1.5 m/s)
Visibility: 6 or more miles (10+ km)
Ceiling: at least 12,000 feet AGL
Clouds: few clouds at 3000 feet AGL
Weather: no significant weather observed at this time

METAR text: VCBI 162010Z 18003KT 140V220 9999 FEW040 24/23 Q1013 NOSIG
Conditions at: VCBI (COLOMBO/KATUNAYA, LK) observed 2010 UTC 16 February 2019
Temperature: 24.0°C (75°F)
Dewpoint: 23.0°C (73°F) [RH = 94%]
Pressure (altimeter): 29.91 inches Hg (1013.0 mb)
Winds: from the S (180 degrees) at 3 MPH (3 knots; 1.5 m/s)
Visibility: 6 or more miles (10+ km)
Ceiling: at least 12,000 feet AGL
Clouds: few clouds at 4000 feet AGL
Weather: no significant weather observed at this time

METAR text: VCBI 161910Z 09004KT 030V110 9999 SCT017 24/23 Q1015 NOSIG
Conditions at: VCBI (COLOMBO/KATUNAYA, LK) observed 1910 UTC 16 February 2019
Temperature: 24.0°C (75°F)
Dewpoint: 23.0°C (73°F) [RH = 94%]
Pressure (altimeter): 29.97 inches Hg (1015.0 mb)
Winds: from the E (90 degrees) at 5 MPH (4 knots; 2.1 m/s)
Visibility: 6 or more miles (10+ km)
Ceiling: at least 12,000 feet AGL
Clouds: scattered clouds at 1700 feet AGL
Weather: no significant weather observed at this time

METAR text: VCBI 161810Z 07005KT 010V100 9999 VCTS FEW018 FEW020CB 24/23 Q1015 NOSIG RMK NW/N
Conditions at: VCBI (COLOMBO/KATUNAYA, LK) observed 1810 UTC 16 February 2019
Temperature: 24.0°C (75°F)
Dewpoint: 23.0°C (73°F) [RH = 94%]
Pressure (altimeter): 29.97 inches Hg (1015.0 mb)
Winds: from the ENE (70 degrees) at 6 MPH (5 knots; 2.6 m/s)
Visibility: 6 or more miles (10+ km)
Ceiling: at least 12,000 feet AGL
Clouds: few clouds at 1800 feet AGL
few clouds at 2000 feet AGL
Weather: VCTS  (thunderstorm in vicinity)

METAR text: VCBI 161710Z 05003KT 360V150 9999 FEW018 FEW020CB 24/23 Q1016 NOSIG RMK NW/N/NE
Conditions at: VCBI (COLOMBO/KATUNAYA, LK) observed 1710 UTC 16 February 2019
Temperature: 24.0°C (75°F)
Dewpoint: 23.0°C (73°F) [RH = 94%]
Pressure (altimeter): 30.00 inches Hg (1016.0 mb)
Winds: from the NE (50 degrees) at 3 MPH (3 knots; 1.5 m/s)
Visibility: 6 or more miles (10+ km)
Ceiling: at least 12,000 feet AGL
Clouds: few clouds at 1800 feet AGL
few clouds at 2000 feet AGL
Weather: no significant weather observed at this time

METAR text: VCBI 161610Z 08004KT 030V110 9999 VCTS FEW017 FEW020CB 25/23 Q1015 NOSIG RMK N/NE
Conditions at: VCBI (COLOMBO/KATUNAYA, LK) observed 1610 UTC 16 February 2019
Temperature: 25.0°C (77°F)
Dewpoint: 23.0°C (73°F) [RH = 89%]
Pressure (altimeter): 29.97 inches Hg (1015.0 mb)
Winds: from the E (80 degrees) at 5 MPH (4 knots; 2.1 m/s)
Visibility: 6 or more miles (10+ km)
Ceiling: at least 12,000 feet AGL
Clouds: few clouds at 1700 feet AGL
few clouds at 2000 feet AGL
Weather: VCTS  (thunderstorm in vicinity)

METAR text: VCBI 161510Z 14005KT 110V180 9000 VCTS FEW012 SCT016 FEW020CB 25/23 Q1015 NOSIG RMK NW/N/NE
Conditions at: VCBI (COLOMBO/KATUNAYA, LK) observed 1510 UTC 16 February 2019
Temperature: 25.0°C (77°F)
Dewpoint: 23.0°C (73°F) [RH = 89%]
Pressure (altimeter): 29.97 inches Hg (1015.0 mb)
Winds: from the SE (140 degrees) at 6 MPH (5 knots; 2.6 m/s)
Visibility: 6 miles ( 9 km)
Ceiling: at least 12,000 feet AGL
Clouds: few clouds at 1200 feet AGL
scattered clouds at 1600 feet AGL
few clouds at 2000 feet AGL
Weather: VCTS  (thunderstorm in vicinity)

METAR text: VCBI 161410Z 11004KT 070V170 9999 VCTS SCT017 FEW020CB 25/23 Q1014 NOSIG RMK NW/N/NE
Conditions at: VCBI (COLOMBO/KATUNAYA, LK) observed 1410 UTC 16 February 2019
Temperature: 25.0°C (77°F)
Dewpoint: 23.0°C (73°F) [RH = 89%]
Pressure (altimeter): 29.94 inches Hg (1014.0 mb)
Winds: from the ESE (110 degrees) at 5 MPH (4 knots; 2.1 m/s)
Visibility: 6 or more miles (10+ km)
Ceiling: at least 12,000 feet AGL
Clouds: scattered clouds at 1700 feet AGL
few clouds at 2000 feet AGL
Weather: VCTS  (thunderstorm in vicinity)

METAR text: VCBI 161310Z 14007KT 100V180 9000 -SHRA FEW012 BKN017 FEW020CB 26/22 Q1013 NOSIG RMK NW/W/N/SE
Conditions at: VCBI (COLOMBO/KATUNAYA, LK) observed 1310 UTC 16 February 2019
Temperature: 26.0°C (79°F)
Dewpoint: 22.0°C (72°F) [RH = 79%]
Pressure (altimeter): 29.91 inches Hg (1013.0 mb)
Winds: from the SE (140 degrees) at 8 MPH (7 knots; 3.6 m/s)
Visibility: 6 miles ( 9 km)
Ceiling: 1700 feet AGL
Clouds: few clouds at 1200 feet AGL
broken clouds at 1700 feet AGL
few clouds at 2000 feet AGL
Weather: -SHRA  (light rain showers)

METAR text: VCBI 161210Z 26005KT 220V290 9000 FEW012 BKN016 SCT020CB 29/25 Q1011 NOSIG RMK N/NE/E/SE/S/NW
Conditions at: VCBI (COLOMBO/KATUNAYA, LK) observed 1210 UTC 16 February 2019
Temperature: 29.0°C (84°F)
Dewpoint: 25.0°C (77°F) [RH = 79%]
Pressure (altimeter): 29.85 inches Hg (1011.0 mb)
Winds: from the W (260 degrees) at 6 MPH (5 knots; 2.6 m/s)
Visibility: 6 miles ( 9 km)
Ceiling: 1600 feet AGL
Clouds: few clouds at 1200 feet AGL
broken clouds at 1600 feet AGL
scattered clouds at 2000 feet AGL
Weather: no significant weather observed at this time

METAR text: VCBI 161110Z 28004KT 220V010 9000 FEW012 BKN016 FEW020CB 29/26 Q1011 NOSIG RMK N/NE/E/SE/S/NW
Conditions at: VCBI (COLOMBO/KATUNAYA, LK) observed 1110 UTC 16 February 2019
Temperature: 29.0°C (84°F)
Dewpoint: 26.0°C (79°F) [RH = 84%]
Pressure (altimeter): 29.85 inches Hg (1011.0 mb)
Winds: from the W (280 degrees) at 5 MPH (4 knots; 2.1 m/s)
Visibility: 6 miles ( 9 km)
Ceiling: 1600 feet AGL
Clouds: few clouds at 1200 feet AGL
broken clouds at 1600 feet AGL
few clouds at 2000 feet AGL
Weather: no significant weather observed at this time

METAR text: VCBI 161010Z 27005KT 220V350 9000 BKN016 FEW020CB 30/25 Q1010 NOSIG RMK E/SE/W/NW
Conditions at: VCBI (COLOMBO/KATUNAYA, LK) observed 1010 UTC 16 February 2019
Temperature: 30.0°C (86°F)
Dewpoint: 25.0°C (77°F) [RH = 75%]
Pressure (altimeter): 29.82 inches Hg (1010.0 mb)
Winds: from the W (270 degrees) at 6 MPH (5 knots; 2.6 m/s)
Visibility: 6 miles ( 9 km)
Ceiling: 1600 feet AGL
Clouds: broken clouds at 1600 feet AGL
few clouds at 2000 feet AGL
Weather: no significant weather observed at this time

METAR text: VCBI 160910Z 28006KT 220V010 9000 SCT016 FEW019TCU 31/25 Q1011 NOSIG RMK SE
Conditions at: VCBI (COLOMBO/KATUNAYA, LK) observed 0910 UTC 16 February 2019
Temperature: 31.0°C (88°F)
Dewpoint: 25.0°C (77°F) [RH = 71%]
Pressure (altimeter): 29.85 inches Hg (1011.0 mb)
Winds: from the W (280 degrees) at 7 MPH (6 knots; 3.1 m/s)
Visibility: 6 miles ( 9 km)
Ceiling: at least 12,000 feet AGL
Clouds: scattered clouds at 1600 feet AGL
few clouds at 1900 feet AGL
Weather: no significant weather observed at this time

METAR text: VCBI 160810Z 27006KT 190V360 9999 SCT016 FEW019TCU 31/25 Q1012 NOSIG RMK SE
Conditions at: VCBI (COLOMBO/KATUNAYA, LK) observed 0810 UTC 16 February 2019
Temperature: 31.0°C (88°F)
Dewpoint: 25.0°C (77°F) [RH = 71%]
Pressure (altimeter): 29.88 inches Hg (1012.0 mb)
Winds: from the W (270 degrees) at 7 MPH (6 knots; 3.1 m/s)
Visibility: 6 or more miles (10+ km)
Ceiling: at least 12,000 feet AGL
Clouds: scattered clouds at 1600 feet AGL
few clouds at 1900 feet AGL
Weather: no significant weather observed at this time

METAR text: VCBI 160710Z 26008KT 200V330 9999 SCT017 31/25 Q1013 NOSIG
Conditions at: VCBI (COLOMBO/KATUNAYA, LK) observed 0710 UTC 16 February 2019
Temperature: 31.0°C (88°F)
Dewpoint: 25.0°C (77°F) [RH = 71%]
Pressure (altimeter): 29.91 inches Hg (1013.0 mb)
Winds: from the W (260 degrees) at 9 MPH (8 knots; 4.1 m/s)
Visibility: 6 or more miles (10+ km)
Ceiling: at least 12,000 feet AGL
Clouds: scattered clouds at 1700 feet AGL
Weather: no significant weather observed at this time

METAR text: VCBI 160610Z 25006KT 210V310 9999 SCT017 31/23 Q1014 NOSIG
Conditions at: VCBI (COLOMBO/KATUNAYA, LK) observed 0610 UTC 16 February 2019
Temperature: 31.0°C (88°F)
Dewpoint: 23.0°C (73°F) [RH = 63%]
Pressure (altimeter): 29.94 inches Hg (1014.0 mb)
Winds: from the WSW (250 degrees) at 7 MPH (6 knots; 3.1 m/s)
Visibility: 6 or more miles (10+ km)
Ceiling: at least 12,000 feet AGL
Clouds: scattered clouds at 1700 feet AGL
Weather: no significant weather observed at this time

METAR text: VCBI 160510Z 25007KT 220V300 9999 FEW018 30/25 Q1015 NOSIG
Conditions at: VCBI (COLOMBO/KATUNAYA, LK) observed 0510 UTC 16 February 2019
Temperature: 30.0°C (86°F)
Dewpoint: 25.0°C (77°F) [RH = 75%]
Pressure (altimeter): 29.97 inches Hg (1015.0 mb)
Winds: from the WSW (250 degrees) at 8 MPH (7 knots; 3.6 m/s)
Visibility: 6 or more miles (10+ km)
Ceiling: at least 12,000 feet AGL
Clouds: few clouds at 1800 feet AGL
Weather: no significant weather observed at this time

METAR text: VCBI 160410Z 24006KT 9999 FEW017 29/25 Q1015 NOSIG
Conditions at: VCBI (COLOMBO/KATUNAYA, LK) observed 0410 UTC 16 February 2019
Temperature: 29.0°C (84°F)
Dewpoint: 25.0°C (77°F) [RH = 79%]
Pressure (altimeter): 29.97 inches Hg (1015.0 mb)
Winds: from the WSW (240 degrees) at 7 MPH (6 knots; 3.1 m/s)
Visibility: 6 or more miles (10+ km)
Ceiling: at least 12,000 feet AGL
Clouds: few clouds at 1700 feet AGL
Weather: no significant weather observed at this time

METAR text: VCBI 160310Z VRB01KT CAVOK 29/25 Q1014 NOSIG
Conditions at: VCBI (COLOMBO/KATUNAYA, LK) observed 0310 UTC 16 February 2019
Temperature: 29.0°C (84°F)
Dewpoint: 25.0°C (77°F) [RH = 79%]
Pressure (altimeter): 29.94 inches Hg (1014.0 mb)
Winds: variable direction winds at 1 MPH (1 knots; 0.5 m/s)
Visibility: 6 or more miles (10+ km)
Ceiling: ceiling and visibility are OK
Clouds: unknown
Weather: no significant weather observed at this time

METAR text: VCBI 160210Z VRB02KT 9000 NSC 26/24 Q1013 NOSIG
Conditions at: VCBI (COLOMBO/KATUNAYA, LK) observed 0210 UTC 16 February 2019
Temperature: 26.0°C (79°F)
Dewpoint: 24.0°C (75°F) [RH = 89%]
Pressure (altimeter): 29.91 inches Hg (1013.0 mb)
Winds: variable direction winds at 2 MPH (2 knots; 1.0 m/s)
Visibility: 6 miles ( 9 km)
Ceiling: at least 12,000 feet AGL
Clouds: sky clear below 12,000 feet AGL
Weather: no significant weather observed at this time

METAR text: VCBI 160110Z VRB01KT 8000 NSC 24/23 Q1012 NOSIG
Conditions at: VCBI (COLOMBO/KATUNAYA, LK) observed 0110 UTC 16 February 2019
Temperature: 24.0°C (75°F)
Dewpoint: 23.0°C (73°F) [RH = 94%]
Pressure (altimeter): 29.88 inches Hg (1012.0 mb)
Winds: variable direction winds at 1 MPH (1 knots; 0.5 m/s)
Visibility: 5 miles ( 8 km)
Ceiling: at least 12,000 feet AGL
Clouds: sky clear below 12,000 feet AGL
Weather: no significant weather observed at this time

METAR text: VCBI 160010Z 14003KT 9000 NSC 24/23 Q1012 NOSIG
Conditions at: VCBI (COLOMBO/KATUNAYA, LK) observed 0010 UTC 16 February 2019
Temperature: 24.0°C (75°F)
Dewpoint: 23.0°C (73°F) [RH = 94%]
Pressure (altimeter): 29.88 inches Hg (1012.0 mb)
Winds: from the SE (140 degrees) at 3 MPH (3 knots; 1.5 m/s)
Visibility: 6 miles ( 9 km)
Ceiling: at least 12,000 feet AGL
Clouds: sky clear below 12,000 feet AGL
Weather: no significant weather observed at this time

METAR text: VCBI 152310Z 09003KT 060V120 9000 NSC 24/24 Q1011 NOSIG
Conditions at: VCBI (COLOMBO/KATUNAYA, LK) observed 2310 UTC 15 February 2019
Temperature: 24.0°C (75°F)
Dewpoint: 24.0°C (75°F) [RH = 100%]
Pressure (altimeter): 29.85 inches Hg (1011.0 mb)
Winds: from the E (90 degrees) at 3 MPH (3 knots; 1.5 m/s)
Visibility: 6 miles ( 9 km)
Ceiling: at least 12,000 feet AGL
Clouds: sky clear below 12,000 feet AGL
Weather: no significant weather observed at this time

METAR text: VCBI 152210Z 07004KT 9000 NSC 25/24 Q1011 NOSIG
Conditions at: VCBI (COLOMBO/KATUNAYA, LK) observed 2210 UTC 15 February 2019
Temperature: 25.0°C (77°F)
Dewpoint: 24.0°C (75°F) [RH = 94%]
Pressure (altimeter): 29.85 inches Hg (1011.0 mb)
Winds: from the ENE (70 degrees) at 5 MPH (4 knots; 2.1 m/s)
Visibility: 6 miles ( 9 km)
Ceiling: at least 12,000 feet AGL
Clouds: sky clear below 12,000 feet AGL
Weather: no significant weather observed at this time

METAR text: VCBI 152110Z 09004KT 020V130 9000 FEW018 25/24 Q1012 NOSIG
Conditions at: VCBI (COLOMBO/KATUNAYA, LK) observed 2110 UTC 15 February 2019
Temperature: 25.0°C (77°F)
Dewpoint: 24.0°C (75°F) [RH = 94%]
Pressure (altimeter): 29.88 inches Hg (1012.0 mb)
Winds: from the E (90 degrees) at 5 MPH (4 knots; 2.1 m/s)
Visibility: 6 miles ( 9 km)
Ceiling: at least 12,000 feet AGL
Clouds: few clouds at 1800 feet AGL
Weather: no significant weather observed at this time

METAR text: VCBI 152010Z 08004KT 050V120 9000 SCT017 25/23 Q1013 NOSIG
Conditions at: VCBI (COLOMBO/KATUNAYA, LK) observed 2010 UTC 15 February 2019
Temperature: 25.0°C (77°F)
Dewpoint: 23.0°C (73°F) [RH = 89%]
Pressure (altimeter): 29.91 inches Hg (1013.0 mb)
Winds: from the E (80 degrees) at 5 MPH (4 knots; 2.1 m/s)
Visibility: 6 miles ( 9 km)
Ceiling: at least 12,000 feet AGL
Clouds: scattered clouds at 1700 feet AGL
Weather: no significant weather observed at this time

METAR text: VCBI 151910Z 06004KT 9000 SCT017 25/24 Q1014 NOSIG
Conditions at: VCBI (COLOMBO/KATUNAYA, LK) observed 1910 UTC 15 February 2019
Temperature: 25.0°C (77°F)
Dewpoint: 24.0°C (75°F) [RH = 94%]
Pressure (altimeter): 29.94 inches Hg (1014.0 mb)
Winds: from the ENE (60 degrees) at 5 MPH (4 knots; 2.1 m/s)
Visibility: 6 miles ( 9 km)
Ceiling: at least 12,000 feet AGL
Clouds: scattered clouds at 1700 feet AGL
Weather: no significant weather observed at this time

METAR text: VCBI 151810Z 07003KT 030V130 9000 SCT017 FEW020CB 25/24 Q1014 NOSIG RMK E/SE/SW
Conditions at: VCBI (COLOMBO/KATUNAYA, LK) observed 1810 UTC 15 February 2019
Temperature: 25.0°C (77°F)
Dewpoint: 24.0°C (75°F) [RH = 94%]
Pressure (altimeter): 29.94 inches Hg (1014.0 mb)
Winds: from the ENE (70 degrees) at 3 MPH (3 knots; 1.5 m/s)
Visibility: 6 miles ( 9 km)
Ceiling: at least 12,000 feet AGL
Clouds: scattered clouds at 1700 feet AGL
few clouds at 2000 feet AGL
Weather: no significant weather observed at this time

METAR text: VCBI 151710Z 12004KT 080V180 9000 SCT017 FEW019CB 25/23 Q1015 NOSIG RMK E/SE/SW
Conditions at: VCBI (COLOMBO/KATUNAYA, LK) observed 1710 UTC 15 February 2019
Temperature: 25.0°C (77°F)
Dewpoint: 23.0°C (73°F) [RH = 89%]
Pressure (altimeter): 29.97 inches Hg (1015.0 mb)
Winds: from the ESE (120 degrees) at 5 MPH (4 knots; 2.1 m/s)
Visibility: 6 miles ( 9 km)
Ceiling: at least 12,000 feet AGL
Clouds: scattered clouds at 1700 feet AGL
few clouds at 1900 feet AGL
Weather: no significant weather observed at this time

METAR text: VCBI 151610Z 10003KT 060V140 9000 -SHRA SCT017 FEW019CB 26/25 Q1015 NOSIG RMK E/SE/W
Conditions at: VCBI (COLOMBO/KATUNAYA, LK) observed 1610 UTC 15 February 2019
Temperature: 26.0°C (79°F)
Dewpoint: 25.0°C (77°F) [RH = 94%]
Pressure (altimeter): 29.97 inches Hg (1015.0 mb)
Winds: from the E (100 degrees) at 3 MPH (3 knots; 1.5 m/s)
Visibility: 6 miles ( 9 km)
Ceiling: at least 12,000 feet AGL
Clouds: scattered clouds at 1700 feet AGL
few clouds at 1900 feet AGL
Weather: -SHRA  (light rain showers)

METAR text: VCBI 151510Z 01003KT 330V030 8000 -TSRA SCT016 SCT020CB 26/25 Q1014 NOSIG RMK N/NE/SE/W
Conditions at: VCBI (COLOMBO/KATUNAYA, LK) observed 1510 UTC 15 February 2019
Temperature: 26.0°C (79°F)
Dewpoint: 25.0°C (77°F) [RH = 94%]
Pressure (altimeter): 29.94 inches Hg (1014.0 mb)
Winds: from the N (10 degrees) at 3 MPH (3 knots; 1.5 m/s)
Visibility: 5 miles ( 8 km)
Ceiling: at least 12,000 feet AGL
Clouds: scattered clouds at 1600 feet AGL
scattered clouds at 2000 feet AGL
Weather: -TSRA  (light rain associated with thunderstorm(s))

METAR text: VCBI 151410Z 19006KT 140V290 7000 TSRA SCT015 SCT020CB 27/26 Q1013 NOSIG RMK N/NE/E/SE/SW/W
Conditions at: VCBI (COLOMBO/KATUNAYA, LK) observed 1410 UTC 15 February 2019
Temperature: 27.0°C (81°F)
Dewpoint: 26.0°C (79°F) [RH = 94%]
Pressure (altimeter): 29.91 inches Hg (1013.0 mb)
Winds: from the S (190 degrees) at 7 MPH (6 knots; 3.1 m/s)
Visibility: 4 miles ( 7 km)
Ceiling: at least 12,000 feet AGL
Clouds: scattered clouds at 1500 feet AGL
scattered clouds at 2000 feet AGL
Weather: TSRA  (rain associated with thunderstorm(s))

METAR text: VCBI 151310Z 26004KT 220V310 9000 VCTS SCT017 SCT020CB 29/25 Q1012 NOSIG RMK N/NE/E/SE/W
Conditions at: VCBI (COLOMBO/KATUNAYA, LK) observed 1310 UTC 15 February 2019
Temperature: 29.0°C (84°F)
Dewpoint: 25.0°C (77°F) [RH = 79%]
Pressure (altimeter): 29.88 inches Hg (1012.0 mb)
Winds: from the W (260 degrees) at 5 MPH (4 knots; 2.1 m/s)
Visibility: 6 miles ( 9 km)
Ceiling: at least 12,000 feet AGL
Clouds: scattered clouds at 1700 feet AGL
scattered clouds at 2000 feet AGL
Weather: VCTS  (thunderstorm in vicinity)

METAR text: VCBI 151210Z VRB04KT 9999 FEW017 FEW020CB 29/25 Q1011 NOSIG RMK N/NE
Conditions at: VCBI (COLOMBO/KATUNAYA, LK) observed 1210 UTC 15 February 2019
Temperature: 29.0°C (84°F)
Dewpoint: 25.0°C (77°F) [RH = 79%]
Pressure (altimeter): 29.85 inches Hg (1011.0 mb)
Winds: variable direction winds at 5 MPH (4 knots; 2.1 m/s)
Visibility: 6 or more miles (10+ km)
Ceiling: at least 12,000 feet AGL
Clouds: few clouds at 1700 feet AGL
few clouds at 2000 feet AGL
Weather: no significant weather observed at this time

METAR text: VCBI 151110Z VRB05KT 9999 FEW017 FEW020CB 30/25 Q1010 NOSIG RMK N/NE
Conditions at: VCBI (COLOMBO/KATUNAYA, LK) observed 1110 UTC 15 February 2019
Temperature: 30.0°C (86°F)
Dewpoint: 25.0°C (77°F) [RH = 75%]
Pressure (altimeter): 29.82 inches Hg (1010.0 mb)
Winds: variable direction winds at 6 MPH (5 knots; 2.6 m/s)
Visibility: 6 or more miles (10+ km)
Ceiling: at least 12,000 feet AGL
Clouds: few clouds at 1700 feet AGL
few clouds at 2000 feet AGL
Weather: no significant weather observed at this time

METAR text: VCBI 151010Z 25007KT 220V310 9999 FEW018 FEW020CB 31/26 Q1010 NOSIG RMK N/NE
Conditions at: VCBI (COLOMBO/KATUNAYA, LK) observed 1010 UTC 15 February 2019
Temperature: 31.0°C (88°F)
Dewpoint: 26.0°C (79°F) [RH = 75%]
Pressure (altimeter): 29.82 inches Hg (1010.0 mb)
Winds: from the WSW (250 degrees) at 8 MPH (7 knots; 3.6 m/s)
Visibility: 6 or more miles (10+ km)
Ceiling: at least 12,000 feet AGL
Clouds: few clouds at 1800 feet AGL
few clouds at 2000 feet AGL
Weather: no significant weather observed at this time

Forecast for: VCBI (COLOMBO/KATUNAYA, LK)
Text: TAF VCBI 161700Z 1618/1724 06008KT 9999 SCT018 TX32/1707Z TN25/1700Z
Forecast period: 1800 UTC 16 February 2019 to 0400 UTC 17 February 2019
Forecast type: FROM: standard forecast or significant change
Winds: from the ENE (60 degrees) at 9 MPH (8 knots; 4.1 m/s)
Visibility: 6 or more miles 10+ km)
Ceiling: at least 12,000 feet AGL
Clouds: scattered clouds at 1800 feet AGL
Weather: no significant weather forecast for this period
Text: BECMG 1704/1705 25008KT
Forecast period: 0400 UTC 17 February 2019 to 0000 UTC 18 February 2019
Forecast type: BECOMING: Conditions expected to become as follows by 0500 UTC 17 February 2019
Winds: from the WSW (250 degrees) at 9 MPH (8 knots; 4.1 m/s)
Visibility: 6 or more miles 10+ km)
Ceiling: at least 12,000 feet AGL
Clouds: scattered clouds at 1800 feet AGL
Weather: no significant weather forecast for this period
Text: PROB30
Forecast period: 1000 to 1500 UTC 17 February 2019
Forecast type: TEMPORARY: The following changes expected for less than half the time period
Visibility: 4 miles (6 km)
Ceiling: at least 12,000 feet AGL
Clouds: scattered clouds at 1600 feet AGL
few clouds at 2000 feet AGL
Weather: SHRA -TSRA  (rain showers, light rain associated with thunderstorm(s))